createdAt,value
2023-04-22T00:00:54.937Z,9.63
2023-04-22T00:03:24.951Z,10.13
2023-04-22T00:05:51.775Z,10.80
2023-04-22T00:08:18.412Z,10.20
2023-04-22T00:10:45.055Z,9.53
2023-04-22T00:13:11.656Z,11.30
2023-04-22T00:15:38.562Z,10.80
2023-04-22T00:18:04.999Z,10.20
2023-04-22T00:20:32.870Z,10.87
2023-04-22T00:22:59.286Z,10.10
2023-04-22T00:25:26.018Z,10.47
2023-04-22T00:27:52.575Z,10.23
2023-04-22T00:30:19.111Z,10.37
2023-04-22T00:32:45.942Z,10.27
2023-04-22T00:35:12.734Z,10.27
2023-04-22T00:37:39.698Z,10.33
2023-04-22T00:40:07.021Z,10.70
2023-04-22T00:42:33.741Z,10.87
2023-04-22T00:45:01.362Z,10.97
2023-04-22T00:47:28.597Z,11.73
2023-04-22T00:49:55.089Z,11.20
2023-04-22T00:52:22.212Z,10.23
2023-04-22T00:54:49.611Z,10.60
2023-04-22T00:57:17.020Z,11.10
2023-04-22T00:59:44.583Z,10.93
2023-04-22T01:02:11.642Z,10.43
2023-04-22T01:04:38.735Z,10.93
2023-04-22T01:07:05.329Z,11.10
2023-04-22T01:09:31.844Z,10.93
2023-04-22T01:11:58.312Z,11.37
2023-04-22T01:14:25.249Z,10.57
2023-04-22T01:16:53.991Z,10.53
2023-04-22T01:19:20.737Z,10.80
2023-04-22T01:21:50.916Z,10.43
2023-04-22T01:24:17.628Z,10.93
2023-04-22T01:26:44.402Z,11.30
2023-04-22T01:29:10.866Z,11.53
2023-04-22T01:31:38.089Z,10.80
2023-04-22T01:34:05.372Z,10.73
2023-04-22T01:36:33.753Z,12.00
2023-04-22T01:39:00.707Z,11.30
2023-04-22T01:41:27.367Z,11.20
2023-04-22T01:43:54.603Z,10.97
2023-04-22T01:46:21.060Z,11.03
2023-04-22T01:48:51.355Z,11.07
2023-04-22T01:51:20.938Z,11.73
2023-04-22T01:53:48.704Z,11.60
2023-04-22T01:56:15.799Z,11.33
2023-04-22T01:58:42.727Z,12.40
2023-04-22T02:01:12.389Z,11.57
2023-04-22T02:03:39.302Z,12.23
2023-04-22T02:06:06.218Z,12.10
2023-04-22T02:08:32.693Z,11.73
2023-04-22T02:11:00.832Z,11.60
2023-04-22T02:13:35.429Z,12.13
2023-04-22T02:16:02.063Z,12.40
2023-04-22T02:18:28.447Z,11.90
2023-04-22T02:20:54.921Z,12.27
2023-04-22T02:23:21.738Z,12.43
2023-04-22T02:25:52.385Z,12.43
2023-04-22T02:28:19.436Z,12.10
2023-04-22T02:30:46.687Z,11.70
2023-04-22T02:33:14.377Z,11.60
2023-04-22T02:35:40.865Z,12.43
2023-04-22T02:38:07.303Z,12.67
2023-04-22T02:40:33.710Z,12.40
2023-04-22T02:43:00.364Z,12.20
2023-04-22T02:45:28.477Z,12.87
2023-04-22T02:47:55.509Z,13.03
2023-04-22T02:50:22.123Z,12.93
2023-04-22T02:52:48.573Z,12.70
2023-04-22T02:55:15.614Z,12.60
2023-04-22T02:57:42.060Z,12.20
2023-04-22T03:00:09.030Z,13.03
2023-04-22T03:02:36.195Z,12.57
2023-04-22T03:05:08.484Z,13.27
2023-04-22T03:07:35.516Z,12.23
2023-04-22T03:10:02.936Z,11.43
2023-04-22T03:12:29.376Z,12.77
2023-04-22T03:14:56.582Z,12.73
2023-04-22T03:17:27.974Z,13.33
2023-04-22T03:19:54.865Z,13.23
2023-04-22T03:22:21.899Z,12.57
2023-04-22T03:24:50.577Z,12.50
2023-04-22T03:27:17.195Z,12.87
2023-04-22T03:29:43.624Z,13.20
2023-04-22T03:32:10.945Z,12.80
2023-04-22T03:34:37.880Z,12.73
2023-04-22T03:37:06.998Z,12.80
2023-04-22T03:39:33.502Z,13.03
2023-04-22T03:42:00.057Z,13.87
2023-04-22T03:44:26.544Z,13.77
2023-04-22T03:46:54.963Z,13.80
2023-04-22T03:49:26.171Z,13.23
2023-04-22T03:51:54.887Z,13.53
2023-04-22T03:54:24.326Z,13.63
2023-04-22T03:56:52.410Z,14.50
2023-04-22T03:59:21.082Z,14.57
2023-04-22T04:01:50.832Z,13.97
2023-04-22T04:04:20.695Z,13.47
2023-04-22T04:06:52.462Z,13.90
2023-04-22T04:09:19.594Z,14.07
2023-04-22T04:11:46.565Z,13.40
2023-04-22T04:14:13.353Z,14.73
2023-04-22T04:16:46.306Z,13.57
2023-04-22T04:19:33.806Z,13.13
2023-04-22T04:22:02.161Z,12.83
2023-04-22T04:24:33.457Z,13.67
2023-04-22T04:27:05.633Z,13.37
2023-04-22T04:29:41.399Z,12.23
2023-04-22T04:32:14.144Z,13.03
2023-04-22T04:34:42.517Z,12.60
2023-04-22T04:37:09.626Z,12.63
2023-04-22T04:39:48.445Z,13.27
2023-04-22T04:42:16.360Z,12.17
2023-04-22T04:44:52.007Z,13.17
2023-04-22T04:47:20.306Z,13.23
2023-04-22T04:49:47.380Z,13.40
2023-04-22T04:52:14.281Z,11.40
2023-04-22T04:54:41.356Z,11.93
2023-04-22T04:57:10.052Z,11.37
2023-04-22T04:59:37.916Z,12.10
2023-04-22T05:02:05.750Z,11.77
2023-04-22T05:04:33.152Z,10.77
2023-04-22T05:07:00.034Z,11.07
2023-04-22T05:09:28.996Z,11.27
2023-04-22T05:11:55.816Z,10.53
2023-04-22T05:14:22.762Z,10.00
2023-04-22T05:16:49.300Z,11.67
2023-04-22T05:19:15.971Z,11.10
2023-04-22T05:21:43.270Z,10.30
2023-04-22T05:24:09.770Z,11.27
2023-04-22T05:26:36.520Z,11.00
2023-04-22T05:29:09.276Z,10.63
2023-04-22T05:31:35.869Z,11.07
2023-04-22T05:34:02.323Z,11.20
2023-04-22T05:36:31.416Z,10.80
2023-04-22T05:38:58.872Z,10.17
2023-04-22T05:41:26.160Z,9.77
2023-04-22T05:43:54.613Z,10.30
2023-04-22T05:46:21.153Z,10.17
2023-04-22T05:48:49.098Z,10.30
2023-04-22T05:51:34.007Z,9.43
2023-04-22T05:54:00.833Z,9.27
2023-04-22T05:56:27.627Z,10.40
2023-04-22T05:58:54.073Z,9.60
2023-04-22T06:01:24.849Z,8.87
2023-04-22T06:04:06.117Z,9.47
2023-04-22T06:06:33.501Z,8.87
2023-04-22T06:08:59.926Z,9.00
2023-04-22T06:11:26.469Z,9.10
2023-04-22T06:13:53.165Z,8.50
2023-04-22T06:16:19.871Z,8.93
2023-04-22T06:18:46.753Z,8.60
2023-04-22T06:21:14.009Z,8.47
2023-04-22T06:23:40.509Z,8.30
2023-04-22T06:26:06.970Z,8.17
2023-04-22T06:28:35.234Z,7.93
2023-04-22T06:31:05.948Z,7.20
2023-04-22T06:33:32.441Z,7.40
2023-04-22T06:35:59.109Z,7.33
2023-04-22T06:38:26.096Z,6.87
2023-04-22T06:41:22.451Z,6.50
2023-04-22T06:43:51.121Z,6.50
2023-04-22T06:46:17.677Z,6.93
2023-04-22T06:49:03.039Z,6.27
2023-04-22T06:52:03.583Z,6.77
2023-04-22T06:54:31.847Z,6.60
2023-04-22T06:56:58.345Z,6.33
2023-04-22T06:59:24.971Z,6.30
2023-04-22T07:01:51.505Z,6.53
2023-04-22T07:04:18.052Z,6.50
2023-04-22T07:06:44.634Z,6.87
2023-04-22T07:09:12.515Z,6.77
2023-04-22T07:11:39.048Z,7.20
2023-04-22T07:14:18.573Z,7.27
2023-04-22T07:16:45.502Z,6.77
2023-04-22T07:19:12.415Z,6.90
2023-04-22T07:21:38.825Z,6.83
2023-04-22T07:24:05.511Z,7.00
2023-04-22T07:26:34.242Z,6.80
2023-04-22T07:29:00.672Z,6.60
2023-04-22T07:31:27.235Z,7.10
2023-04-22T07:33:53.689Z,6.17
2023-04-22T07:36:20.725Z,6.20
2023-04-22T07:38:47.623Z,6.50
2023-04-22T07:41:14.095Z,6.63
2023-04-22T07:43:40.485Z,6.97
2023-04-22T07:46:07.246Z,7.00
2023-04-22T07:48:33.632Z,6.17
2023-04-22T07:51:00.030Z,6.27
2023-04-22T07:53:27.404Z,6.40
2023-04-22T07:55:54.980Z,6.60
2023-04-22T07:58:21.614Z,6.03
2023-04-22T08:00:48.023Z,6.20
2023-04-22T08:03:14.691Z,5.90
2023-04-22T08:05:41.264Z,6.03
2023-04-22T08:08:08.184Z,6.23
2023-04-22T08:10:34.632Z,5.87
2023-04-22T08:13:03.201Z,5.57
2023-04-22T08:15:30.062Z,5.40
2023-04-22T08:17:56.604Z,5.27
2023-04-22T08:20:23.692Z,5.07
2023-04-22T08:22:51.457Z,5.03
2023-04-22T08:25:17.940Z,5.00
2023-04-22T08:27:44.431Z,5.50
2023-04-22T08:30:11.051Z,5.33
2023-04-22T08:32:37.779Z,5.27
2023-04-22T08:35:05.448Z,5.00
2023-04-22T08:37:32.317Z,5.40
2023-04-22T08:39:58.736Z,4.83
2023-04-22T08:42:26.735Z,5.33
2023-04-22T08:44:54.896Z,4.07
2023-04-22T08:47:21.768Z,4.23
2023-04-22T08:49:51.384Z,4.30
2023-04-22T08:52:18.470Z,3.93
2023-04-22T08:54:44.861Z,3.80
2023-04-22T08:57:12.283Z,3.93
2023-04-22T08:59:39.101Z,3.90
2023-04-22T09:02:07.627Z,4.30
2023-04-22T09:04:34.455Z,4.00
2023-04-22T09:07:02.040Z,4.60
2023-04-22T09:09:30.695Z,4.67
2023-04-22T09:11:57.889Z,5.07
2023-04-22T09:14:25.383Z,4.80
2023-04-22T09:16:52.059Z,4.93
2023-04-22T09:19:19.224Z,4.67
2023-04-22T09:21:49.091Z,4.67
2023-04-22T09:24:16.541Z,4.37
2023-04-22T09:26:42.928Z,4.13
2023-04-22T09:29:14.249Z,3.93
2023-04-22T09:31:41.362Z,4.10
2023-04-22T09:34:08.613Z,3.93
2023-04-22T09:36:37.371Z,4.23
2023-04-22T09:39:09.285Z,4.03
2023-04-22T09:41:40.311Z,4.10
2023-04-22T09:44:15.519Z,3.73
2023-04-22T09:46:43.806Z,3.80
2023-04-22T09:49:10.999Z,3.83
2023-04-22T09:51:40.963Z,4.03
2023-04-22T09:54:08.861Z,3.70
2023-04-22T09:56:50.834Z,3.70
2023-04-22T09:59:22.258Z,3.37
2023-04-22T10:01:51.066Z,3.70
2023-04-22T10:04:21.282Z,4.03
2023-04-22T10:06:48.608Z,3.80
2023-04-22T10:09:25.133Z,3.90
2023-04-22T10:11:54.096Z,4.10
2023-04-22T10:14:25.314Z,3.90
2023-04-22T10:16:58.960Z,3.83
2023-04-22T10:19:26.838Z,3.70
2023-04-22T10:21:56.370Z,3.50
2023-04-22T10:24:26.721Z,3.03
2023-04-22T10:26:58.571Z,3.23
2023-04-22T10:29:42.632Z,3.10
2023-04-22T10:32:25.355Z,3.10
2023-04-22T10:35:08.445Z,3.43
2023-04-22T10:37:35.742Z,3.10
2023-04-22T10:40:16.516Z,3.50
2023-04-22T10:42:49.486Z,3.03
2023-04-22T10:45:16.226Z,3.40
2023-04-22T10:47:43.627Z,3.70
2023-04-22T10:50:24.007Z,3.33
2023-04-22T10:52:58.735Z,3.30
2023-04-22T10:55:44.631Z,3.10
2023-04-22T10:58:21.649Z,3.03
2023-04-22T11:00:54.193Z,3.00
2023-04-22T11:03:27.112Z,2.70
2023-04-22T11:06:16.841Z,2.97
2023-04-22T11:08:47.808Z,3.20
2023-04-22T11:11:18.700Z,3.27
2023-04-22T11:13:47.769Z,2.93
2023-04-22T11:16:14.260Z,3.00
2023-04-22T11:18:41.077Z,2.97
2023-04-22T11:21:08.692Z,3.13
2023-04-22T11:23:36.570Z,2.80
2023-04-22T11:26:05.647Z,3.20
2023-04-22T11:28:32.453Z,2.90
2023-04-22T11:31:11.735Z,2.93
2023-04-22T11:33:39.117Z,2.73
2023-04-22T11:36:09.806Z,3.23
2023-04-22T11:38:36.651Z,3.50
2023-04-22T11:41:04.887Z,3.50
2023-04-22T11:43:31.480Z,3.40
2023-04-22T11:45:58.191Z,3.40
2023-04-22T11:48:24.845Z,3.30
2023-04-22T11:51:08.767Z,3.30
2023-04-22T11:53:35.285Z,3.43
2023-04-22T11:56:03.880Z,3.33
2023-04-22T11:58:30.571Z,3.60
2023-04-22T12:00:59.139Z,3.70
2023-04-22T12:03:28.223Z,3.30
2023-04-22T12:06:00.316Z,3.00
2023-04-22T12:08:47.227Z,3.30
2023-04-22T12:11:13.684Z,3.30
2023-04-22T12:13:42.963Z,3.30
2023-04-22T12:16:15.704Z,3.70
2023-04-22T12:18:51.333Z,3.20
2023-04-22T12:21:24.167Z,3.37
2023-04-22T12:23:55.492Z,3.42
2023-04-22T12:26:26.531Z,3.35
2023-04-22T12:28:54.877Z,3.17
2023-04-22T12:31:21.680Z,3.38
2023-04-22T12:33:48.309Z,3.50
2023-04-22T12:36:15.360Z,3.15
2023-04-22T12:38:41.861Z,3.45
2023-04-22T12:41:08.500Z,3.30
2023-04-22T12:43:39.268Z,3.10
2023-04-22T12:46:07.515Z,12.23
2023-04-22T12:48:35.919Z,4.40
2023-04-22T12:51:03.065Z,3.60
2023-04-22T12:53:29.504Z,3.30
2023-04-22T12:55:56.429Z,3.95
2023-04-22T12:58:23.393Z,3.10
2023-04-22T13:00:49.932Z,3.20
2023-04-22T13:03:16.702Z,3.75
2023-04-22T13:05:45.337Z,3.30
2023-04-22T13:08:11.815Z,3.10
2023-04-22T13:10:38.315Z,3.00
2023-04-22T13:15:34.573Z,2.90
2023-04-22T13:18:02.402Z,3.10
2023-04-22T13:20:28.932Z,3.90
2023-04-22T13:22:55.971Z,2.85
2023-04-22T13:25:22.634Z,2.92
2023-04-22T13:27:49.072Z,2.92
2023-04-22T13:30:15.715Z,2.78
2023-04-22T13:32:42.173Z,2.95
2023-04-22T13:35:09.366Z,3.10
2023-04-22T13:37:36.753Z,2.85
2023-04-22T13:40:05.682Z,2.70
2023-04-22T13:42:32.179Z,2.80
2023-04-22T13:44:58.593Z,2.63
2023-04-22T13:47:25.097Z,2.67
2023-04-22T13:49:51.644Z,2.60
2023-04-22T13:52:18.035Z,2.60
2023-04-22T13:54:44.746Z,2.70
2023-04-22T13:57:11.156Z,2.78
2023-04-22T13:59:37.714Z,2.95
2023-04-22T14:02:04.291Z,2.80
2023-04-22T14:04:30.713Z,2.50
2023-04-22T14:06:57.112Z,3.10
2023-04-22T14:09:23.789Z,2.83
2023-04-22T14:11:50.289Z,2.70
2023-04-22T14:14:16.773Z,2.70
2023-04-22T14:16:43.382Z,2.50
2023-04-22T14:19:10.150Z,2.80
2023-04-22T14:21:36.615Z,2.80
2023-04-22T14:24:03.025Z,2.90
2023-04-22T14:26:29.641Z,2.85
2023-04-22T14:28:56.058Z,2.50
2023-04-22T14:31:24.598Z,2.72
2023-04-22T14:33:51.706Z,3.40
2023-04-22T14:36:18.572Z,2.90
2023-04-22T14:38:45.046Z,3.03
2023-04-22T14:41:12.380Z,2.90
2023-04-22T14:43:39.004Z,3.17
2023-04-22T14:46:05.565Z,2.40
2023-04-22T14:48:35.220Z,2.70
2023-04-22T14:51:02.673Z,2.87
2023-04-22T14:53:29.202Z,2.80
2023-04-22T14:55:56.453Z,2.97
2023-04-22T14:58:23.821Z,2.70
2023-04-22T15:00:50.464Z,3.13
2023-04-22T15:03:17.085Z,3.20
2023-04-22T15:05:44.077Z,2.87
2023-04-22T15:08:10.584Z,2.97
2023-04-22T15:10:37.024Z,2.50
2023-04-22T15:13:03.454Z,2.80
2023-04-22T15:15:29.865Z,2.70
2023-04-22T15:17:56.431Z,2.97
2023-04-22T15:20:22.947Z,2.97
2023-04-22T15:22:49.308Z,3.00
2023-04-22T15:25:18.082Z,2.20
2023-04-22T15:27:44.985Z,3.00
2023-04-22T15:30:11.718Z,2.70
2023-04-22T15:32:39.142Z,3.60
2023-04-22T15:35:07.557Z,2.60
2023-04-22T15:37:34.106Z,2.90
2023-04-22T15:40:00.551Z,2.77
2023-04-22T15:42:27.650Z,2.63
2023-04-22T15:44:54.137Z,3.07
2023-04-22T15:47:20.706Z,2.45
2023-04-22T15:49:49.460Z,2.20
2023-04-22T15:52:17.542Z,2.47
2023-04-22T15:54:44.728Z,2.30
2023-04-22T15:57:11.195Z,2.53
2023-04-22T15:59:37.832Z,5.17
2023-04-22T16:02:04.391Z,22.70
2023-04-22T16:04:31.259Z,6.50
2023-04-22T16:06:59.275Z,12.20
2023-04-22T16:09:26.123Z,10.67
2023-04-22T16:11:53.527Z,9.73
2023-04-22T16:14:19.936Z,18.33
2023-04-22T16:16:47.580Z,9.37
2023-04-22T16:19:14.350Z,7.40
2023-04-22T16:21:40.987Z,16.00
2023-04-22T16:24:07.549Z,26.43
2023-04-22T16:26:34.173Z,33.77
2023-04-22T16:29:00.732Z,10.20
2023-04-22T16:31:27.670Z,13.67
2023-04-22T16:33:54.101Z,37.53
2023-04-22T16:36:21.490Z,26.43
2023-04-22T16:38:48.091Z,52.57
2023-04-22T16:41:15.292Z,37.90
2023-04-22T16:43:41.763Z,23.80
2023-04-22T16:46:08.285Z,14.10
2023-04-22T16:48:34.796Z,24.90
2023-04-22T16:51:02.364Z,34.23
2023-04-22T16:53:29.764Z,35.77
2023-04-22T16:55:56.569Z,20.30
2023-04-22T16:58:23.058Z,8.93
2023-04-22T17:00:49.497Z,23.20
2023-04-22T17:03:16.124Z,10.37
2023-04-22T17:05:42.682Z,14.40
2023-04-22T17:08:09.273Z,5.67
2023-04-22T17:10:37.208Z,4.10
2023-04-22T17:13:03.675Z,8.50
2023-04-22T17:15:30.091Z,9.50
2023-04-22T17:17:56.561Z,4.43
2023-04-22T17:20:23.063Z,5.30
2023-04-22T17:22:49.766Z,4.20
2023-04-22T17:25:16.171Z,4.50
2023-04-22T17:27:42.583Z,3.70
2023-04-22T17:30:09.336Z,4.73
2023-04-22T17:32:35.813Z,6.00
2023-04-22T17:35:02.729Z,5.80
2023-04-22T17:37:29.183Z,5.23
2023-04-22T17:39:56.299Z,6.00
2023-04-22T17:44:50.566Z,3.50
2023-04-22T17:47:17.299Z,3.50
2023-04-22T17:49:43.941Z,3.13
2023-04-22T17:52:10.509Z,3.30
2023-04-22T17:54:36.959Z,3.37
2023-04-22T17:57:03.640Z,3.20
2023-04-22T17:59:30.093Z,3.30
2023-04-22T18:01:56.659Z,3.13
2023-04-22T18:04:23.334Z,3.00
2023-04-22T18:06:49.788Z,3.40
2023-04-22T18:09:16.885Z,3.00
2023-04-22T18:11:43.586Z,3.00
2023-04-22T18:14:10.569Z,3.00
2023-04-22T18:16:37.152Z,3.33
2023-04-22T18:19:06.714Z,3.10
2023-04-22T18:21:34.292Z,3.17
2023-04-22T18:24:02.553Z,2.87
2023-04-22T18:26:29.053Z,2.90
2023-04-22T18:28:55.700Z,3.10
2023-04-22T18:31:22.243Z,2.87
2023-04-22T18:33:48.867Z,3.37
2023-04-22T18:36:15.341Z,2.87
2023-04-22T18:38:41.972Z,3.00
2023-04-22T18:41:10.870Z,2.70
2023-04-22T18:43:37.463Z,3.20
2023-04-22T18:46:04.178Z,2.80
2023-04-22T18:48:30.756Z,2.87
2023-04-22T18:51:00.572Z,3.10
2023-04-22T18:53:27.692Z,3.23
2023-04-22T18:55:54.231Z,2.70
2023-04-22T18:58:22.998Z,3.07
2023-04-22T19:00:50.540Z,2.90
2023-04-22T19:03:17.173Z,3.00
2023-04-22T19:05:43.633Z,3.10
2023-04-22T19:08:10.459Z,3.03
2023-04-22T19:10:36.901Z,3.10
2023-04-22T19:13:04.134Z,2.90
2023-04-22T19:15:30.582Z,3.20
2023-04-22T19:17:57.089Z,3.47
2023-04-22T19:20:23.696Z,3.37
2023-04-22T19:22:50.171Z,3.23
2023-04-22T19:25:18.662Z,3.53
2023-04-22T19:27:45.143Z,3.20
2023-04-22T19:30:12.683Z,3.17
2023-04-22T19:32:39.155Z,3.33
2023-04-22T19:35:06.982Z,3.60
2023-04-22T19:37:33.989Z,4.10
2023-04-22T19:40:00.558Z,3.73
2023-04-22T19:42:27.904Z,3.67
2023-04-22T19:44:54.710Z,4.03
2023-04-22T19:47:21.554Z,3.90
2023-04-22T19:49:48.357Z,3.50
2023-04-22T19:52:15.600Z,3.20
2023-04-22T19:54:47.134Z,3.47
2023-04-22T19:57:14.957Z,3.67
2023-04-22T19:59:42.370Z,3.90
2023-04-22T20:02:09.721Z,3.80
2023-04-22T20:04:36.975Z,3.80
2023-04-22T20:07:04.029Z,4.10
2023-04-22T20:09:32.926Z,3.80
2023-04-22T20:11:59.849Z,3.73
2023-04-22T20:14:26.698Z,4.03
2023-04-22T20:16:53.373Z,4.03
2023-04-22T20:19:19.990Z,4.20
2023-04-22T20:21:48.780Z,4.20
2023-04-22T20:24:19.663Z,4.50
2023-04-22T20:26:48.058Z,4.43
2023-04-22T20:29:16.445Z,5.27
2023-04-22T20:31:43.290Z,4.10
2023-04-22T20:34:10.043Z,4.20
2023-04-22T20:36:39.717Z,4.30
2023-04-22T20:39:06.353Z,4.00
2023-04-22T20:41:37.068Z,4.30
2023-04-22T20:44:03.582Z,4.70
2023-04-22T20:46:30.042Z,4.50
2023-04-22T20:48:56.507Z,4.40
2023-04-22T20:51:23.094Z,4.80
2023-04-22T20:53:50.893Z,4.60
2023-04-22T20:56:17.332Z,4.70
2023-04-22T20:58:43.772Z,4.73
2023-04-22T21:01:10.562Z,5.10
2023-04-22T21:03:39.574Z,5.00
2023-04-22T21:06:06.286Z,5.10
2023-04-22T21:08:33.806Z,5.23
2023-04-22T21:11:00.496Z,4.93
2023-04-22T21:13:28.786Z,4.37
2023-04-22T21:16:02.936Z,4.37
2023-04-22T21:18:32.243Z,4.40
2023-04-22T21:21:02.498Z,4.70
2023-04-22T21:23:29.674Z,4.50
2023-04-22T21:25:59.229Z,4.43
2023-04-22T21:28:26.017Z,4.20
2023-04-22T21:30:53.027Z,4.53
2023-04-22T21:33:19.720Z,4.33
2023-04-22T21:35:46.824Z,4.37
2023-04-22T21:38:16.023Z,4.13
2023-04-22T21:40:42.417Z,5.13
2023-04-22T21:43:08.808Z,4.87
2023-04-22T21:45:35.778Z,5.20
2023-04-22T21:48:03.865Z,5.20
2023-04-22T21:50:31.280Z,4.27
2023-04-22T21:52:58.115Z,5.20
2023-04-22T21:55:24.636Z,5.77
2023-04-22T21:57:51.422Z,4.50
2023-04-22T22:00:18.700Z,4.13
2023-04-22T22:02:48.260Z,4.23
2023-04-22T22:05:15.896Z,5.07
2023-04-22T22:07:43.152Z,4.20
2023-04-22T22:10:19.029Z,5.50
2023-04-22T22:12:48.325Z,4.07
2023-04-22T22:15:17.432Z,6.83
2023-04-22T22:17:44.864Z,5.50
2023-04-22T22:20:20.177Z,4.20
2023-04-22T22:22:47.190Z,6.27
2023-04-22T22:25:15.509Z,4.90
2023-04-22T22:27:48.649Z,4.83
2023-04-22T22:30:16.488Z,5.47
2023-04-22T22:32:42.975Z,6.00
2023-04-22T22:35:10.212Z,4.93
2023-04-22T22:37:36.691Z,5.47
2023-04-22T22:40:04.031Z,5.17
2023-04-22T22:42:30.594Z,5.27
2023-04-22T22:44:57.601Z,4.80
2023-04-22T22:47:27.125Z,4.73
2023-04-22T22:49:53.578Z,4.67
2023-04-22T22:52:20.044Z,4.87
2023-04-22T22:54:48.572Z,4.53
2023-04-22T22:57:15.011Z,4.73
2023-04-22T22:59:41.476Z,5.07
2023-04-22T23:02:08.060Z,13.43
2023-04-22T23:04:36.497Z,11.37
2023-04-22T23:07:03.463Z,9.03
2023-04-22T23:09:29.885Z,5.90
2023-04-22T23:11:56.550Z,6.80
2023-04-22T23:14:24.555Z,5.13
2023-04-22T23:16:51.098Z,5.23
2023-04-22T23:19:18.154Z,5.43
2023-04-22T23:21:46.096Z,6.57
2023-04-22T23:24:14.840Z,10.43
2023-04-22T23:26:42.015Z,8.63
2023-04-22T23:29:09.219Z,31.87
2023-04-22T23:31:35.990Z,20.20
2023-04-22T23:34:05.010Z,7.17
2023-04-22T23:36:33.602Z,5.67
2023-04-22T23:39:00.696Z,6.20
2023-04-22T23:41:27.672Z,5.50
2023-04-22T23:43:54.173Z,5.77
2023-04-22T23:46:20.655Z,5.50
2023-04-22T23:48:47.246Z,5.40
2023-04-22T23:51:16.696Z,6.20
2023-04-22T23:53:44.122Z,6.57
2023-04-22T23:56:11.853Z,5.57
2023-04-22T23:58:38.776Z,7.53
